Time;durP1;ratioP1;P1;durP2;ratioP2;P2;SDS_P1;SDS_P2;PMS_P1;PMS_P2;Temp;Humidity;BMP_temperature;BMP_pressure;BME280_temperature;BME280_humidity;BME280_pressure;Samples;Min_cycle;Max_cycle;Signal;HPM_P1;HPM_P2
2020/12/28 00:00:33;;;;;;;4.73;2.20;;;;;;;-144.99;100.00;52523.50;5056754;28;20690;-74
2020/12/28 00:02:59;;;;;;;2.57;1.77;;;;;;;-144.99;100.00;52529.63;5054441;28;21112;-75
2020/12/28 00:05:26;;;;;;;2.60;1.30;;;;;;;-144.99;100.00;52529.63;5069572;28;21035;-75
2020/12/28 00:07:53;;;;;;;2.80;1.53;;;;;;;-144.99;100.00;52507.19;5075006;28;20646;-74
2020/12/28 00:10:21;;;;;;;2.30;1.73;;;;;;;-144.99;100.00;52527.59;5061546;28;20692;-75
2020/12/28 00:12:48;;;;;;;1.73;1.20;;;;;;;-144.99;100.00;52521.47;5076112;28;21220;-75
2020/12/28 00:15:18;;;;;;;4.00;2.13;;;;;;;-144.99;100.00;52550.00;5065848;28;20663;-76
2020/12/28 00:17:46;;;;;;;2.90;1.60;;;;;;;-144.99;100.00;52484.78;5077574;28;20634;-75
2020/12/28 00:20:12;;;;;;;3.27;1.93;;;;;;;-144.99;100.00;52513.31;5075627;28;20672;-75
2020/12/28 00:22:39;;;;;;;2.37;1.47;;;;;;;-144.99;100.00;52517.41;5068456;28;20615;-76
2020/12/28 00:25:06;;;;;;;2.80;1.60;;;;;;;-144.99;100.00;52513.31;5062525;28;20616;-75
2020/12/28 00:27:32;;;;;;;1.70;1.37;;;;;;;-144.99;100.00;52529.63;5074639;28;20635;-74
2020/12/28 00:29:59;;;;;;;2.40;1.53;;;;;;;-144.99;100.00;52527.59;5058333;28;20687;-75
2020/12/28 00:32:25;;;;;;;2.37;1.40;;;;;;;-144.99;100.00;52499.06;5054134;28;20635;-77
2020/12/28 00:34:52;;;;;;;2.10;1.43;;;;;;;-144.99;100.00;52539.81;5052242;28;21050;-76
2020/12/28 00:37:18;;;;;;;7.03;1.80;;;;;;;-144.99;100.00;52562.25;5071050;28;20730;-76
2020/12/28 00:39:44;;;;;;;3.17;2.20;;;;;;;-144.99;100.00;52497.00;5056212;28;20620;-76
2020/12/28 00:42:10;;;;;;;5.57;1.87;;;;;;;-144.99;100.00;52545.94;5061237;28;20621;-78
2020/12/28 00:44:36;;;;;;;3.33;1.90;;;;;;;-144.99;100.00;52513.31;5069238;28;20634;-76
2020/12/28 00:47:04;;;;;;;2.53;1.87;;;;;;;-144.99;100.00;52525.56;5071789;28;20655;-78
2020/12/28 00:49:30;;;;;;;2.80;1.30;;;;;;;-144.99;100.00;52505.16;5065761;28;20632;-78
2020/12/28 00:51:56;;;;;;;3.80;2.03;;;;;;;-144.99;100.00;52497.00;5055187;28;20632;-79
2020/12/28 00:54:22;;;;;;;3.90;1.87;;;;;;;-144.99;100.00;52527.59;5072781;28;20634;-79
2020/12/28 00:56:50;;;;;;;3.97;1.93;;;;;;;-144.99;100.00;52513.31;5073177;28;21200;-78
2020/12/28 00:59:16;;;;;;;5.20;1.50;;;;;;;-144.99;100.00;52501.09;5056595;28;20769;-78
2020/12/28 01:01:42;;;;;;;3.57;2.23;;;;;;;-144.99;100.00;52541.84;5070042;28;20682;-77
2020/12/28 01:04:09;;;;;;;2.67;1.63;;;;;;;-144.99;100.00;52541.84;5058180;28;20689;-77
2020/12/28 01:06:35;;;;;;;4.93;1.97;;;;;;;-144.99;100.00;52529.63;5073151;28;20651;-77
2020/12/28 01:09:04;;;;;;;2.70;1.70;;;;;;;-144.99;99.95;52484.78;5071672;28;20652;-77
2020/12/28 01:11:30;;;;;;;2.47;1.83;;;;;;;-144.99;99.60;52492.94;5063952;28;20666;-76
2020/12/28 01:13:56;;;;;;;2.73;1.50;;;;;;;-144.99;99.50;52480.72;5057841;28;21077;-77
2020/12/28 01:16:22;;;;;;;2.77;1.70;;;;;;;-144.99;99.41;52484.78;5077711;28;20654;-77
2020/12/28 01:18:48;;;;;;;1.97;1.40;;;;;;;-144.99;99.20;52525.56;5060610;28;20977;-77
2020/12/28 01:21:19;;;;;;;2.87;1.47;;;;;;;-144.99;99.44;52511.28;5059250;28;20659;-76
2020/12/28 01:23:46;;;;;;;2.63;1.30;;;;;;;-144.99;99.20;52492.94;5059092;28;20612;-76
2020/12/28 01:26:13;;;;;;;2.27;1.47;;;;;;;-144.99;99.21;52480.72;5069362;28;20641;-77
2020/12/28 01:28:39;;;;;;;1.87;1.27;;;;;;;-144.99;98.99;52492.94;5058357;28;20632;-77
2020/12/28 01:31:05;;;;;;;2.20;1.57;;;;;;;-144.99;98.81;52507.19;5057780;28;20671;-78
2020/12/28 01:33:31;;;;;;;2.67;1.40;;;;;;;-144.99;98.51;52509.25;5056293;28;21283;-78
2020/12/28 01:35:57;;;;;;;3.40;1.67;;;;;;;-144.99;98.46;52537.78;5065974;28;20725;-78
2020/12/28 01:38:24;;;;;;;2.67;1.77;;;;;;;-144.99;98.35;52545.94;5057506;28;20612;-77
2020/12/28 01:40:51;;;;;;;3.90;1.83;;;;;;;-144.99;98.68;52480.72;5070273;28;20683;-79
2020/12/28 01:43:17;;;;;;;2.00;1.20;;;;;;;-144.99;98.06;52558.16;5076696;28;20660;-76
2020/12/28 01:45:44;;;;;;;3.00;1.13;;;;;;;-144.99;97.95;52525.56;5076693;28;20615;-76
2020/12/28 01:48:10;;;;;;;3.73;1.70;;;;;;;-144.99;97.64;52509.25;4720548;28;9999780;-77
2020/12/28 01:50:36;;;;;;;1.93;1.60;;;;;;;-144.99;97.59;52497.00;5064221;28;20224;-76
2020/12/28 01:53:03;;;;;;;1.50;1.17;;;;;;;-144.99;97.49;52541.84;5072179;28;20603;-77
2020/12/28 01:55:31;;;;;;;1.57;1.23;;;;;;;-144.99;97.79;52497.00;5058641;28;20652;-77
2020/12/28 01:57:57;;;;;;;2.17;1.80;;;;;;;-144.99;97.20;52497.00;5052893;28;20627;-78
2020/12/28 02:00:24;;;;;;;1.73;1.17;;;;;;;-144.99;96.73;52537.78;5053412;28;20758;-77
2020/12/28 02:02:50;;;;;;;2.77;1.47;;;;;;;-144.99;96.16;52517.41;5056293;28;20651;-78
2020/12/28 02:05:17;;;;;;;4.50;1.93;;;;;;;-144.99;96.35;52537.78;5071178;28;20718;-77
2020/12/28 02:07:45;;;;;;;2.00;1.23;;;;;;;-144.99;96.00;52505.16;5057831;28;20630;-77
2020/12/28 02:10:11;;;;;;;3.50;3.20;;;;;;;-144.99;95.63;52539.81;5057559;28;20666;-78
2020/12/28 02:12:39;;;;;;;2.03;1.53;;;;;;;-144.99;95.68;52494.97;5058478;28;20639;-77
2020/12/28 02:15:05;;;;;;;2.27;1.77;;;;;;;-144.99;95.72;52513.31;5071866;28;20659;-78
2020/12/28 02:17:32;;;;;;;1.53;1.17;;;;;;;-144.99;95.72;52499.06;5070588;28;20604;-78
2020/12/28 02:19:59;;;;;;;1.33;1.00;;;;;;;-144.99;95.75;52525.56;5061201;28;20656;-76
2020/12/28 02:22:26;;;;;;;3.93;2.23;;;;;;;-144.99;95.30;52509.25;5057795;28;21052;-75
2020/12/28 02:24:52;;;;;;;6.60;6.07;;;;;;;-144.99;95.37;52476.63;5058402;28;20639;-76
2020/12/28 02:27:19;;;;;;;2.77;1.80;;;;;;;-144.99;94.93;52517.41;5057677;28;21188;-76
2020/12/28 02:29:45;;;;;;;2.37;1.50;;;;;;;-144.99;95.09;52513.31;5058638;28;20658;-76
2020/12/28 02:32:11;;;;;;;2.87;1.77;;;;;;;-144.99;95.15;52501.09;5058750;28;20612;-77
2020/12/28 02:34:37;;;;;;;3.07;1.60;;;;;;;-144.99;94.72;52509.25;5059305;28;20654;-76
2020/12/28 02:37:03;;;;;;;1.70;1.50;;;;;;;-144.99;94.93;52472.56;5058366;28;20944;-76
2020/12/28 02:39:30;;;;;;;1.40;1.00;;;;;;;-144.99;94.69;52529.63;5073529;28;21192;-75
2020/12/28 02:41:57;;;;;;;2.40;1.40;;;;;;;-144.99;94.62;52472.56;5097025;22;20698;-73
2020/12/28 02:44:23;;;;;;;1.60;1.20;;;;;;;-144.99;94.30;52488.84;5079234;28;20712;-74
2020/12/28 02:46:49;;;;;;;2.77;2.03;;;;;;;-144.99;94.52;52488.84;5074407;28;20655;-75
2020/12/28 02:49:15;;;;;;;2.00;1.37;;;;;;;-144.99;94.58;52521.47;5076248;28;20657;-75
2020/12/28 02:51:41;;;;;;;2.20;1.30;;;;;;;-144.99;94.27;52537.78;5085183;28;20693;-74
2020/12/28 02:54:07;;;;;;;2.67;1.43;;;;;;;-144.99;94.23;52509.25;5093668;28;20641;-73
2020/12/28 02:56:34;;;;;;;1.77;1.00;;;;;;;-144.99;94.34;52509.25;5092794;28;21089;-74
2020/12/28 02:59:00;;;;;;;1.67;1.10;;;;;;;-144.99;94.08;52501.09;5092347;28;21217;-73
2020/12/28 03:01:26;;;;;;;2.07;1.43;;;;;;;-144.99;93.85;52501.09;5092218;28;20740;-74
2020/12/28 03:03:52;;;;;;;2.53;1.37;;;;;;;-144.99;94.17;52519.44;5093968;28;20625;-74
2020/12/28 03:06:19;;;;;;;2.33;1.23;;;;;;;-144.99;93.84;52525.56;5101926;28;21105;-73
2020/12/28 03:08:45;;;;;;;2.47;1.50;;;;;;;-144.99;93.69;52501.09;5092591;28;20721;-74
2020/12/28 03:11:11;;;;;;;2.47;1.50;;;;;;;-144.99;93.76;52525.56;5092613;28;21261;-75
2020/12/28 03:13:38;;;;;;;1.47;1.00;;;;;;;-144.99;94.06;52517.41;5108833;28;20656;-74
2020/12/28 03:16:04;;;;;;;2.20;1.20;;;;;;;-144.99;94.13;52554.09;5112868;28;20653;-74
2020/12/28 03:18:30;;;;;;;1.90;1.43;;;;;;;-144.99;93.80;52494.97;5112764;28;20628;-75
2020/12/28 03:20:58;;;;;;;2.60;2.20;;;;;;;-144.99;93.84;52513.31;5113279;28;21150;-75
2020/12/28 03:23:24;;;;;;;2.00;1.40;;;;;;;-144.99;93.76;52509.25;5113076;28;20682;-74
2020/12/28 03:25:50;;;;;;;1.47;0.90;;;;;;;-144.99;94.06;52497.00;5112870;28;21174;-74
2020/12/28 03:28:16;;;;;;;2.57;1.07;;;;;;;-144.99;94.06;52503.13;5112260;28;20624;-74
2020/12/28 03:30:43;;;;;;;1.43;1.10;;;;;;;-144.99;94.14;52499.06;5112567;28;20763;-74
2020/12/28 03:33:09;;;;;;;2.07;1.53;;;;;;;-144.99;94.25;52488.84;5105675;27;20626;-74
2020/12/28 03:35:36;;;;;;;1.90;1.33;;;;;;;-144.99;94.27;52509.25;5091849;28;21286;-74
2020/12/28 03:38:02;;;;;;;1.63;1.03;;;;;;;-144.99;94.28;52519.44;5091533;28;21261;-74
2020/12/28 03:40:28;;;;;;;1.17;0.90;;;;;;;-144.99;94.43;52505.16;5101612;28;20720;-72
2020/12/28 03:42:54;;;;;;;3.10;1.53;;;;;;;-144.99;94.45;52509.25;5102591;27;20643;-72
2020/12/28 03:45:20;;;;;;;1.13;0.93;;;;;;;-144.99;94.40;52503.13;5091716;28;20667;-74
2020/12/28 03:47:47;;;;;;;1.17;1.03;;;;;;;-144.99;94.70;52543.91;5092391;28;20653;-75
2020/12/28 03:50:13;;;;;;;1.53;1.00;;;;;;;-144.99;94.72;52499.06;5093497;28;21226;-74
2020/12/28 03:52:39;;;;;;;2.03;0.90;;;;;;;-144.99;95.02;52501.09;5092021;28;21310;-74
2020/12/28 03:55:06;;;;;;;2.43;1.50;;;;;;;-144.99;95.02;52497.00;5094457;28;20674;-73
2020/12/28 03:57:32;;;;;;;1.50;1.23;;;;;;;-144.99;95.09;52484.78;5095680;28;20689;-73
2020/12/28 03:59:59;;;;;;;2.50;1.73;;;;;;;-144.99;95.32;52505.16;5096423;28;20622;-72
2020/12/28 04:02:25;;;;;;;2.23;1.13;;;;;;;-144.99;95.40;52541.84;5093055;28;21113;-72
2020/12/28 04:04:52;;;;;;;1.57;1.03;;;;;;;-144.99;95.59;52497.00;5100916;28;20656;-72
2020/12/28 04:07:18;;;;;;;1.20;1.00;;;;;;;-144.99;96.07;52533.69;5092322;28;20733;-73
2020/12/28 04:09:44;;;;;;;2.67;1.23;;;;;;;-144.99;96.22;52533.69;5090797;28;20751;-73
2020/12/28 04:12:10;;;;;;;2.43;1.00;;;;;;;-144.99;96.98;52497.00;5095433;28;20688;-71
2020/12/28 04:14:36;;;;;;;1.20;0.90;;;;;;;-144.99;97.16;52521.47;5097823;28;20733;-72
2020/12/28 04:17:03;;;;;;;1.83;1.20;;;;;;;-144.99;97.74;52527.59;5090987;28;20697;-72
2020/12/28 04:19:29;;;;;;;2.83;1.80;;;;;;;-144.99;98.11;52507.19;5090202;28;20728;-72
2020/12/28 04:21:56;;;;;;;1.17;0.80;;;;;;;-144.99;98.87;52492.94;5091095;28;21250;-72
2020/12/28 04:24:22;;;;;;;1.67;1.00;;;;;;;-144.99;99.21;52527.59;5090873;28;20641;-72
2020/12/28 04:26:48;;;;;;;2.60;1.53;;;;;;;-144.99;99.36;52507.19;5090796;28;20685;-73
2020/12/28 04:29:14;;;;;;;1.07;0.87;;;;;;;-144.99;99.67;52529.63;5091068;28;20637;-72
2020/12/28 04:31:42;;;;;;;2.40;1.20;;;;;;;-144.99;99.96;52531.66;5091282;28;20689;-72
2020/12/28 04:34:09;;;;;;;3.80;1.53;;;;;;;-144.99;100.00;52476.63;5090899;28;20717;-73
2020/12/28 04:36:36;;;;;;;1.17;0.80;;;;;;;-144.99;100.00;52509.25;5091173;28;20685;-72
2020/12/28 04:39:03;;;;;;;2.63;1.40;;;;;;;-144.99;100.00;52505.16;5090178;28;21139;-72
2020/12/28 04:41:30;;;;;;;1.80;1.00;;;;;;;-144.99;100.00;52517.41;5104770;28;20681;-74
2020/12/28 04:43:56;;;;;;;2.77;2.33;;;;;;;-144.99;100.00;52521.47;5098600;28;20720;-72
2020/12/28 04:46:24;;;;;;;1.67;0.87;;;;;;;-144.99;100.00;52501.09;5090660;28;20622;-73
2020/12/28 04:48:50;;;;;;;4.57;1.57;;;;;;;-144.99;100.00;52527.59;5090602;28;20717;-74
2020/12/28 04:51:18;;;;;;;2.37;1.20;;;;;;;-144.99;100.00;52488.84;5090353;28;20746;-73
2020/12/28 04:53:45;;;;;;;1.93;1.00;;;;;;;-144.99;100.00;52515.34;5090751;28;20721;-73
2020/12/28 04:56:12;;;;;;;1.60;1.50;;;;;;;-144.99;100.00;52480.72;5090408;28;21013;-74
2020/12/28 04:58:38;;;;;;;1.10;1.00;;;;;;;-144.99;100.00;52488.84;5090183;28;20622;-74
2020/12/28 05:01:04;;;;;;;1.60;1.17;;;;;;;-144.99;100.00;52521.47;5089921;28;20745;-73
2020/12/28 05:03:30;;;;;;;0.93;0.70;;;;;;;-144.99;100.00;52511.28;5089969;28;20840;-74
2020/12/28 05:05:56;;;;;;;0.80;0.70;;;;;;;-144.99;100.00;52525.56;5101102;28;20721;-74
2020/12/28 05:08:23;;;;;;;1.33;0.93;;;;;;;-144.99;100.00;52513.31;5089588;28;20662;-76
2020/12/28 05:10:49;;;;;;;2.40;1.10;;;;;;;-144.99;100.00;52482.75;5089941;28;21058;-74
2020/12/28 05:13:18;;;;;;;1.57;0.80;;;;;;;-144.99;100.00;52497.00;5102249;28;20620;-74
2020/12/28 05:15:48;;;;;;;1.23;0.83;;;;;;;-144.99;100.00;52480.72;5089209;28;20658;-74
2020/12/28 05:18:16;;;;;;;1.60;0.87;;;;;;;-144.99;100.00;52505.16;5089405;28;20652;-75
2020/12/28 05:20:46;;;;;;;1.73;1.13;;;;;;;-144.99;100.00;52525.56;5089089;28;20656;-74
2020/12/28 05:23:13;;;;;;;2.80;1.30;;;;;;;-144.99;100.00;52501.09;5089482;28;21100;-74
2020/12/28 05:25:42;;;;;;;1.27;0.90;;;;;;;-144.99;100.00;52533.69;5089668;28;20672;-73
2020/12/28 05:28:09;;;;;;;2.17;1.37;;;;;;;-144.99;100.00;52497.00;5093314;28;21081;-74
2020/12/28 05:30:36;;;;;;;1.53;1.20;;;;;;;-144.99;100.00;52519.44;5090866;28;20637;-73
2020/12/28 05:33:04;;;;;;;1.63;0.93;;;;;;;-144.99;100.00;52537.78;5089313;28;20656;-73
2020/12/28 05:35:31;;;;;;;2.67;1.03;;;;;;;-144.99;100.00;52537.78;5089051;28;20744;-71
2020/12/28 05:37:59;;;;;;;1.33;1.23;;;;;;;-144.99;100.00;52497.00;5089302;28;20607;-73
2020/12/28 05:40:26;;;;;;;2.27;1.17;;;;;;;-144.99;100.00;52484.78;5098835;28;20652;-73
2020/12/28 05:42:54;;;;;;;2.83;1.60;;;;;;;-144.99;100.00;52480.72;5100667;28;20630;-74
2020/12/28 05:45:21;;;;;;;1.77;1.17;;;;;;;-144.99;100.00;52521.47;5090057;28;21411;-74
2020/12/28 05:47:53;;;;;;;1.60;0.93;;;;;;;-144.99;100.00;52497.00;5088929;28;20806;-74
2020/12/28 05:50:21;;;;;;;0.67;0.67;;;;;;;-144.99;100.00;52505.16;5089013;28;20634;-73
2020/12/28 05:52:53;;;;;;;0.93;0.83;;;;;;;-144.99;100.00;52525.56;5089674;28;20907;-73
2020/12/28 05:55:21;;;;;;;1.23;1.10;;;;;;;-144.99;100.00;52511.28;5089852;28;20955;-73
2020/12/28 05:57:48;;;;;;;2.07;1.20;;;;;;;-144.99;100.00;52505.16;5096498;28;20659;-72
2020/12/28 06:00:14;;;;;;;2.57;1.33;;;;;;;-144.99;100.00;52505.16;5109794;28;20724;-73
2020/12/28 06:02:41;;;;;;;2.60;1.47;;;;;;;-144.99;100.00;52529.63;5109045;28;21099;-73
2020/12/28 06:05:09;;;;;;;1.70;1.27;;;;;;;-144.99;100.00;52499.06;5108614;28;21256;-73
2020/12/28 06:07:36;;;;;;;5.73;3.07;;;;;;;-144.99;100.00;52545.94;5088951;28;20625;-72
2020/12/28 06:10:03;;;;;;;2.73;1.73;;;;;;;-144.99;100.00;52533.69;5089168;28;20682;-72
2020/12/28 06:12:30;;;;;;;4.93;2.57;;;;;;;-144.99;100.00;52490.91;5096314;28;20667;-72
2020/12/28 06:14:56;;;;;;;2.80;1.43;;;;;;;-144.99;100.00;52505.16;5093464;28;20618;-72
2020/12/28 06:17:32;;;;;;;2.90;1.77;;;;;;;-144.99;100.00;52472.56;5088400;28;20686;-71
2020/12/28 06:20:00;;;;;;;3.93;1.80;;;;;;;-144.99;100.00;52509.25;5091361;28;20609;-71
2020/12/28 06:22:27;;;;;;;2.60;1.43;;;;;;;-144.99;100.00;52499.06;5092954;28;20700;-72
2020/12/28 06:24:58;;;;;;;3.00;2.10;;;;;;;-144.99;100.00;52521.47;5093668;28;21080;-72
2020/12/28 06:27:29;;;;;;;3.90;2.13;;;;;;;-144.99;100.00;52480.72;5092675;28;20650;-69
2020/12/28 06:30:10;;;;;;;4.17;2.40;;;;;;;-144.99;100.00;52515.34;5092820;28;20724;-71
2020/12/28 06:32:37;;;;;;;3.53;2.20;;;;;;;-144.99;100.00;52539.81;5092598;28;21088;-71
2020/12/28 06:35:05;;;;;;;2.80;1.63;;;;;;;-144.99;100.00;52484.78;5092722;28;20665;-71
2020/12/28 06:37:39;;;;;;;2.73;1.77;;;;;;;-144.99;100.00;52492.94;5092784;28;20737;-73
2020/12/28 06:40:05;;;;;;;2.93;2.07;;;;;;;-144.99;100.00;52517.41;5099514;28;20613;-73
2020/12/28 06:42:35;;;;;;;2.50;1.70;;;;;;;-144.99;100.00;52503.13;5106930;28;20768;-73
2020/12/28 06:45:15;;;;;;;3.80;2.40;;;;;;;-144.99;100.00;52488.84;5092518;28;20681;-74
2020/12/28 06:47:41;;;;;;;4.27;2.00;;;;;;;-144.99;100.00;52511.28;5092246;28;20705;-73
2020/12/28 06:50:08;;;;;;;2.63;1.53;;;;;;;-144.99;100.00;52521.47;5093020;28;20714;-73
2020/12/28 06:52:34;;;;;;;3.40;1.60;;;;;;;-144.99;100.00;52505.16;5093110;28;21304;-73
2020/12/28 06:55:11;;;;;;;2.63;1.60;;;;;;;-144.99;100.00;52480.72;5094764;28;21183;-73
2020/12/28 06:57:38;;;;;;;2.73;1.80;;;;;;;-144.99;100.00;52545.94;5093207;28;20653;-75
2020/12/28 07:00:06;;;;;;;3.03;2.13;;;;;;;-144.99;100.00;52554.09;5093643;28;20728;-72
2020/12/28 07:02:33;;;;;;;3.07;1.93;;;;;;;-144.99;100.00;52507.19;5091975;28;20659;-73
2020/12/28 07:05:02;;;;;;;2.67;1.57;;;;;;;-144.99;100.00;52501.09;5102712;28;20724;-73
2020/12/28 07:07:39;;;;;;;3.47;2.23;;;;;;;-144.99;100.00;52521.47;5105612;28;20618;-73
2020/12/28 07:10:05;;;;;;;5.97;2.27;;;;;;;-144.99;100.00;52543.91;5092615;28;20721;-73
2020/12/28 07:12:32;;;;;;;4.57;2.03;;;;;;;-144.99;100.00;52492.94;5100115;28;20748;-72
2020/12/28 07:15:03;;;;;;;2.57;1.93;;;;;;;-144.99;100.00;52541.84;5096711;28;20733;-73
2020/12/28 07:17:30;;;;;;;3.80;2.60;;;;;;;-144.99;100.00;52515.34;5091570;28;20681;-73
2020/12/28 07:20:00;;;;;;;4.47;2.67;;;;;;;-144.99;100.00;52541.84;5105622;28;20763;-73
2020/12/28 07:22:27;;;;;;;4.57;2.63;;;;;;;-144.99;100.00;52519.44;5091799;28;21007;-72
2020/12/28 07:24:53;;;;;;;7.03;3.23;;;;;;;-144.99;100.00;52492.94;5092568;28;21198;-74
2020/12/28 07:27:19;;;;;;;2.63;1.77;;;;;;;-144.99;100.00;52492.94;5093165;28;20633;-73
2020/12/28 07:29:46;;;;;;;3.77;2.07;;;;;;;-144.99;100.00;52511.28;5091982;28;21256;-73
2020/12/28 07:32:12;;;;;;;2.93;2.17;;;;;;;-144.99;100.00;52550.00;5092317;28;20685;-73
2020/12/28 07:34:38;;;;;;;4.43;2.87;;;;;;;-144.99;100.00;52472.56;5091922;28;21254;-74
2020/12/28 07:37:05;;;;;;;2.53;2.00;;;;;;;-144.99;100.00;52517.41;5092065;28;20657;-75
2020/12/28 07:39:33;;;;;;;7.33;2.80;;;;;;;-144.99;100.00;52517.41;5094271;28;20646;-74
2020/12/28 07:41:59;;;;;;;3.47;2.30;;;;;;;-144.99;100.00;52550.00;5107594;28;20736;-74
2020/12/28 07:44:26;;;;;;;3.73;1.83;;;;;;;-144.99;100.00;52541.84;5095460;28;20665;-73
2020/12/28 07:47:02;;;;;;;3.80;2.80;;;;;;;-144.99;100.00;52505.16;5092299;28;20652;-73
2020/12/28 07:49:31;;;;;;;3.23;2.10;;;;;;;-144.99;100.00;52525.56;5091463;28;20985;-74
2020/12/28 07:52:09;;;;;;;10.43;2.57;;;;;;;-144.99;100.00;52472.56;5091841;28;20772;-74
2020/12/28 07:54:42;;;;;;;3.00;1.87;;;;;;;-144.99;100.00;52509.25;5098614;28;20624;-75
2020/12/28 07:57:15;;;;;;;2.47;1.80;;;;;;;-144.99;100.00;52521.47;5112143;28;21053;-76
2020/12/28 07:59:50;;;;;;;6.20;2.43;;;;;;;-144.99;100.00;52533.69;5111422;28;20668;-74
2020/12/28 08:02:43;;;;;;;4.07;2.30;;;;;;;-144.99;100.00;52505.16;5111821;28;20701;-75
2020/12/28 08:05:10;;;;;;;5.77;3.90;;;;;;;-144.99;100.00;52513.31;5110471;28;20723;-74
2020/12/28 08:07:36;;;;;;;5.80;2.40;;;;;;;-144.99;100.00;52515.34;5091308;28;21185;-74
2020/12/28 08:10:07;;;;;;;3.43;1.80;;;;;;;-144.99;100.00;52492.94;5090961;28;20627;-74
2020/12/28 08:12:33;;;;;;;4.03;2.10;;;;;;;-144.99;100.00;52513.31;5099041;28;21197;-74
2020/12/28 08:14:59;;;;;;;3.00;2.50;;;;;;;-144.99;100.00;52529.63;5095758;28;20721;-74
2020/12/28 08:17:26;;;;;;;3.80;2.20;;;;;;;-144.99;100.00;52521.47;5091495;28;20646;-74
2020/12/28 08:20:04;;;;;;;8.27;4.87;;;;;;;-144.99;100.00;52550.00;5090912;28;20642;-74
2020/12/28 08:22:30;;;;;;;10.50;5.17;;;;;;;-144.99;100.00;52537.78;5091054;28;21115;-74
2020/12/28 08:25:00;;;;;;;4.10;2.70;;;;;;;-144.99;100.00;52505.16;5090520;28;21183;-73
2020/12/28 08:27:29;;;;;;;5.30;3.37;;;;;;;-144.99;100.00;52529.63;5091168;28;20686;-78
2020/12/28 08:29:56;;;;;;;5.23;2.93;;;;;;;-144.99;100.00;52521.47;5090226;28;20679;-74
2020/12/28 08:32:26;;;;;;;3.50;2.10;;;;;;;-144.99;100.00;52531.66;5103181;28;20744;-74
2020/12/28 08:34:57;;;;;;;6.17;3.03;;;;;;;-144.99;100.00;52509.25;5090613;28;20663;-74
2020/12/28 08:37:23;;;;;;;3.63;2.23;;;;;;;-144.99;100.00;52562.25;5090189;28;21304;-73
2020/12/28 08:39:49;;;;;;;5.47;2.93;;;;;;;-144.99;100.00;52503.13;5095011;28;20694;-73
2020/12/28 08:42:26;;;;;;;6.07;2.57;;;;;;;-144.99;100.00;52497.00;5105847;28;21261;-74
2020/12/28 08:44:53;;;;;;;3.60;2.07;;;;;;;-144.99;100.00;52521.47;5090539;28;20661;-74
2020/12/28 08:47:19;;;;;;;5.37;2.60;;;;;;;-144.99;100.00;52558.16;5090673;28;20615;-74
2020/12/28 08:49:48;;;;;;;4.30;2.40;;;;;;;-144.99;100.00;52497.00;5089942;28;20685;-74
2020/12/28 08:52:17;;;;;;;3.97;1.80;;;;;;;-144.99;100.00;52515.34;5090795;28;20638;-74
2020/12/28 08:54:53;;;;;;;4.43;3.30;;;;;;;-144.99;100.00;52550.00;5095388;28;20629;-74
2020/12/28 08:57:20;;;;;;;6.53;2.57;;;;;;;-144.99;100.00;52497.00;5106815;28;20649;-74
2020/12/28 08:59:46;;;;;;;5.93;2.47;;;;;;;-144.99;100.00;52545.94;5089848;28;21047;-74
2020/12/28 09:02:16;;;;;;;4.93;3.13;;;;;;;-144.99;100.00;52497.00;5091499;28;20642;-74
2020/12/28 09:04:43;;;;;;;5.10;2.80;;;;;;;-144.99;100.00;52501.09;5098645;28;20656;-74
2020/12/28 09:07:09;;;;;;;4.93;3.13;;;;;;;-144.99;100.00;52497.00;5099806;28;20637;-74
2020/12/28 09:09:38;;;;;;;5.87;2.90;;;;;;;-144.99;100.00;52521.47;5104398;28;21200;-74
2020/12/28 09:12:04;;;;;;;7.97;4.13;;;;;;;-144.99;100.00;52541.84;5094774;28;20711;-74
2020/12/28 09:14:30;;;;;;;5.37;3.00;;;;;;;-144.99;100.00;52529.63;5090054;28;21167;-73
2020/12/28 09:16:56;;;;;;;6.67;3.13;;;;;;;-144.99;100.00;52511.28;5097017;28;21274;-72
2020/12/28 09:19:23;;;;;;;5.37;2.90;;;;;;;-144.99;100.00;52545.94;5098987;28;20658;-72
2020/12/28 09:21:49;;;;;;;3.83;2.40;;;;;;;-144.99;100.00;52509.25;5103335;28;21249;-72
2020/12/28 09:24:15;;;;;;;4.73;2.53;;;;;;;-144.99;100.00;52492.94;5110528;28;20704;-73
2020/12/28 09:26:42;;;;;;;5.37;3.17;;;;;;;-144.99;100.00;52499.06;5110203;28;20692;-74
2020/12/28 09:29:08;;;;;;;5.20;2.43;;;;;;;-144.99;100.00;52521.47;5099328;28;21047;-73
2020/12/28 09:31:34;;;;;;;8.13;2.87;;;;;;;-144.99;100.00;52513.31;5103960;28;20740;-73
2020/12/28 09:34:00;;;;;;;7.17;3.07;;;;;;;-144.99;100.00;52511.28;5097313;28;20731;-73
2020/12/28 09:36:27;;;;;;;4.53;3.00;;;;;;;-144.99;100.00;52480.72;5109407;28;20649;-73
2020/12/28 09:38:53;;;;;;;4.57;2.57;;;;;;;-144.99;100.00;52545.94;5110287;28;20625;-73
2020/12/28 09:41:19;;;;;;;4.50;2.60;;;;;;;-144.99;100.00;52501.09;5099605;28;21312;-73
2020/12/28 09:43:46;;;;;;;7.07;3.67;;;;;;;-144.99;100.00;52505.16;5100796;28;20725;-73
2020/12/28 09:46:12;;;;;;;4.20;2.50;;;;;;;-144.99;100.00;52550.00;5101690;28;20629;-73
2020/12/28 09:48:38;;;;;;;7.77;3.43;;;;;;;-144.99;100.00;52501.09;5102503;28;20618;-73
2020/12/28 09:51:05;;;;;;;4.73;2.77;;;;;;;-144.99;100.00;52525.56;5093794;28;21085;-74
2020/12/28 09:53:32;;;;;;;7.53;3.47;;;;;;;-144.99;100.00;52517.41;5089762;28;20622;-73
2020/12/28 09:55:58;;;;;;;7.33;3.40;;;;;;;-144.99;100.00;52541.84;5089607;28;20691;-73
2020/12/28 09:58:24;;;;;;;5.83;2.90;;;;;;;-144.99;100.00;52505.16;5092502;28;20738;-73
2020/12/28 10:00:51;;;;;;;8.83;6.87;;;;;;;-144.99;100.00;52509.25;5098410;28;20729;-74
2020/12/28 10:03:17;;;;;;;5.73;2.77;;;;;;;-144.99;100.00;52509.25;5089546;28;20699;-71
2020/12/28 10:05:44;;;;;;;5.77;3.43;;;;;;;-144.99;100.00;52488.84;5102099;28;20630;-71
2020/12/28 10:08:10;;;;;;;4.57;3.77;;;;;;;-144.99;100.00;52509.25;5096489;28;20717;-71
2020/12/28 10:10:36;;;;;;;4.73;2.37;;;;;;;-144.99;100.00;52562.25;5106087;28;20633;-72
2020/12/28 10:13:02;;;;;;;6.53;3.07;;;;;;;-144.99;100.00;52509.25;5099126;28;20715;-73
2020/12/28 10:15:29;;;;;;;6.17;3.63;;;;;;;-144.99;99.53;52533.69;5089556;28;20629;-73
2020/12/28 10:18:34;;;;;;;5.03;3.03;;;;;;;-144.99;99.72;52517.41;5089140;28;21050;-72
2020/12/28 10:21:00;;;;;;;5.37;3.20;;;;;;;-144.99;99.21;52458.28;5088386;28;20852;-72
2020/12/28 10:23:26;;;;;;;6.37;4.30;;;;;;;-144.99;99.85;52503.13;5098591;28;20632;-73
2020/12/28 10:25:52;;;;;;;6.73;3.70;;;;;;;-144.99;99.99;52517.41;5089854;28;20725;-72
2020/12/28 10:28:18;;;;;;;9.13;4.07;;;;;;;-144.99;100.00;52497.00;5094257;28;20732;-71
2020/12/28 10:30:44;;;;;;;20.70;5.10;;;;;;;-144.99;100.00;52537.78;5092067;28;20678;-74
2020/12/28 10:33:11;;;;;;;6.23;3.67;;;;;;;-144.99;100.00;52488.84;5089250;28;20737;-71
2020/12/28 10:35:38;;;;;;;5.93;3.13;;;;;;;-144.99;100.00;52505.16;5089229;28;21194;-74
2020/12/28 10:38:04;;;;;;;6.03;3.57;;;;;;;-144.99;100.00;52509.25;5095894;28;20787;-73
2020/12/28 10:40:30;;;;;;;4.80;3.07;;;;;;;-144.99;99.91;52578.53;5106435;28;20656;-73
2020/12/28 10:42:56;;;;;;;5.97;3.60;;;;;;;-144.99;100.00;52513.31;5095286;28;20629;-72
2020/12/28 10:45:22;;;;;;;8.67;3.77;;;;;;;-144.99;100.00;52472.56;5109562;28;20701;-72
2020/12/28 10:47:51;;;;;;;5.43;3.40;;;;;;;-144.99;100.00;52488.84;5103938;28;20720;-74
2020/12/28 10:50:18;;;;;;;6.47;4.03;;;;;;;-144.99;100.00;52598.94;5101542;28;20621;-73
2020/12/28 10:52:44;;;;;;;4.90;3.43;;;;;;;-144.99;100.00;52476.63;5089010;28;20757;-73
2020/12/28 10:55:10;;;;;;;4.63;2.97;;;;;;;-144.99;100.00;52537.78;5092178;28;20648;-73
2020/12/28 10:57:37;;;;;;;7.33;3.87;;;;;;;-144.99;99.88;52517.41;5102943;28;21005;-72
2020/12/28 11:00:03;;;;;;;5.77;3.30;;;;;;;-144.99;99.95;52505.16;5094746;28;20610;-75
2020/12/28 11:02:29;;;;;;;5.17;2.53;;;;;;;-144.99;99.38;52505.16;5092683;28;20756;-72
2020/12/28 11:04:55;;;;;;;5.90;3.77;;;;;;;-144.99;99.62;52513.31;5102856;28;21028;-72
2020/12/28 11:07:25;;;;;;;5.07;3.00;;;;;;;-144.99;99.15;52513.31;5092665;28;21045;-72
2020/12/28 11:09:51;;;;;;;5.00;2.20;;;;;;;-144.99;99.50;52533.69;5105525;28;20625;-72
2020/12/28 11:12:20;;;;;;;4.97;2.50;;;;;;;-144.99;99.42;52547.97;5098606;28;20760;-73